Terminal Aerodrome Forecast
Issued by NWS Cleveland, OH

Home | Current Version | Previous Version | Graphics & Text | Print | Product List | Glossary On
Versions: 1 2 3 4 5 6 7 8 9 10 11 12 13 14 15 16 17 18
801
FTUS41 KCLE 260522
TAFERI
TAF
KERI 260522Z 2606/2706 27015G25KT 5SM -SHSN SCT015 OVC030
      TEMPO 2606/2608 2SM -SN BKN015
     FM261200 26010G20KT P6SM -SHSN OVC020
     FM262000 22010G20KT P6SM SCT025 OVC100=

USA.gov is the U.S. government's official web portal to all federal, state and local government web resources and services.